sensor_id;sensor_type;location;lat;lon;timestamp;P1;durP1;ratioP1;P2;durP2;ratioP2
49514;SDS011;35415;47.870;16.058;2022-10-01T00:01:15;5.45;;;3.28;;
49514;SDS011;35415;47.870;16.058;2022-10-01T00:03:44;3.30;;;3.00;;
49514;SDS011;35415;47.870;16.058;2022-10-01T00:06:14;5.28;;;2.88;;
49514;SDS011;35415;47.870;16.058;2022-10-01T00:08:43;4.00;;;2.75;;
49514;SDS011;35415;47.870;16.058;2022-10-01T00:11:13;5.50;;;3.22;;
49514;SDS011;35415;47.870;16.058;2022-10-01T00:13:43;3.75;;;3.10;;
49514;SDS011;35415;47.870;16.058;2022-10-01T00:16:12;3.83;;;2.97;;
49514;SDS011;35415;47.870;16.058;2022-10-01T00:18:42;4.65;;;3.03;;
49514;SDS011;35415;47.870;16.058;2022-10-01T00:21:15;3.22;;;2.80;;
49514;SDS011;35415;47.870;16.058;2022-10-01T00:23:43;5.20;;;3.40;;
49514;SDS011;35415;47.870;16.058;2022-10-01T00:26:12;3.92;;;2.90;;
49514;SDS011;35415;47.870;16.058;2022-10-01T00:28:41;4.63;;;3.33;;
49514;SDS011;35415;47.870;16.058;2022-10-01T00:31:11;3.60;;;3.10;;
49514;SDS011;35415;47.870;16.058;2022-10-01T00:33:40;4.07;;;3.22;;
49514;SDS011;35415;47.870;16.058;2022-10-01T00:36:08;4.60;;;3.17;;
49514;SDS011;35415;47.870;16.058;2022-10-01T00:38:36;3.05;;;2.65;;
49514;SDS011;35415;47.870;16.058;2022-10-01T00:41:07;4.60;;;3.08;;
49514;SDS011;35415;47.870;16.058;2022-10-01T00:43:36;3.95;;;3.15;;
49514;SDS011;35415;47.870;16.058;2022-10-01T00:46:12;6.35;;;3.10;;
49514;SDS011;35415;47.870;16.058;2022-10-01T00:48:47;3.42;;;2.83;;
49514;SDS011;35415;47.870;16.058;2022-10-01T00:51:22;4.20;;;3.10;;
49514;SDS011;35415;47.870;16.058;2022-10-01T00:53:53;3.78;;;2.70;;
49514;SDS011;35415;47.870;16.058;2022-10-01T00:56:27;3.70;;;2.80;;
49514;SDS011;35415;47.870;16.058;2022-10-01T00:58:54;4.70;;;3.00;;
49514;SDS011;35415;47.870;16.058;2022-10-01T01:01:23;4.55;;;3.15;;
49514;SDS011;35415;47.870;16.058;2022-10-01T01:03:50;4.10;;;2.72;;
49514;SDS011;35415;47.870;16.058;2022-10-01T01:06:18;4.78;;;2.75;;
49514;SDS011;35415;47.870;16.058;2022-10-01T01:08:45;3.75;;;3.10;;
49514;SDS011;35415;47.870;16.058;2022-10-01T01:11:21;4.53;;;3.10;;
49514;SDS011;35415;47.870;16.058;2022-10-01T01:13:54;5.60;;;3.47;;
49514;SDS011;35415;47.870;16.058;2022-10-01T01:16:29;4.20;;;3.30;;
49514;SDS011;35415;47.870;16.058;2022-10-01T01:19:07;5.70;;;3.35;;
49514;SDS011;35415;47.870;16.058;2022-10-01T01:21:45;4.03;;;3.27;;
49514;SDS011;35415;47.870;16.058;2022-10-01T01:24:25;5.82;;;4.82;;
49514;SDS011;35415;47.870;16.058;2022-10-01T01:27:07;5.20;;;3.25;;
49514;SDS011;35415;47.870;16.058;2022-10-01T01:29:49;5.15;;;3.17;;
49514;SDS011;35415;47.870;16.058;2022-10-01T01:32:22;4.45;;;3.10;;
49514;SDS011;35415;47.870;16.058;2022-10-01T01:34:55;11.07;;;3.85;;
49514;SDS011;35415;47.870;16.058;2022-10-01T01:37:27;3.73;;;3.00;;
49514;SDS011;35415;47.870;16.058;2022-10-01T01:40:02;4.88;;;3.33;;
49514;SDS011;35415;47.870;16.058;2022-10-01T01:42:34;5.15;;;3.00;;
49514;SDS011;35415;47.870;16.058;2022-10-01T01:45:08;5.32;;;3.58;;
49514;SDS011;35415;47.870;16.058;2022-10-01T01:47:40;4.50;;;3.63;;
49514;SDS011;35415;47.870;16.058;2022-10-01T01:50:09;5.70;;;3.58;;
49514;SDS011;35415;47.870;16.058;2022-10-01T01:52:40;6.00;;;3.45;;
49514;SDS011;35415;47.870;16.058;2022-10-01T01:55:08;5.93;;;3.70;;
49514;SDS011;35415;47.870;16.058;2022-10-01T01:57:39;5.45;;;3.47;;
49514;SDS011;35415;47.870;16.058;2022-10-01T02:00:12;4.43;;;3.75;;
49514;SDS011;35415;47.870;16.058;2022-10-01T02:02:42;5.32;;;3.85;;
49514;SDS011;35415;47.870;16.058;2022-10-01T02:05:15;5.35;;;4.28;;
49514;SDS011;35415;47.870;16.058;2022-10-01T02:08:08;5.53;;;4.50;;
49514;SDS011;35415;47.870;16.058;2022-10-01T02:10:59;3.75;;;3.33;;
49514;SDS011;35415;47.870;16.058;2022-10-01T02:13:41;5.50;;;4.03;;
49514;SDS011;35415;47.870;16.058;2022-10-01T02:16:21;5.80;;;3.67;;
49514;SDS011;35415;47.870;16.058;2022-10-01T02:18:55;3.95;;;3.33;;
49514;SDS011;35415;47.870;16.058;2022-10-01T02:21:27;3.97;;;3.13;;
49514;SDS011;35415;47.870;16.058;2022-10-01T02:23:59;4.32;;;3.30;;
49514;SDS011;35415;47.870;16.058;2022-10-01T02:26:31;7.07;;;3.58;;
49514;SDS011;35415;47.870;16.058;2022-10-01T02:29:02;4.20;;;3.17;;
49514;SDS011;35415;47.870;16.058;2022-10-01T02:31:34;3.58;;;3.10;;
49514;SDS011;35415;47.870;16.058;2022-10-01T02:34:02;3.85;;;3.30;;
49514;SDS011;35415;47.870;16.058;2022-10-01T02:36:31;4.78;;;3.42;;
49514;SDS011;35415;47.870;16.058;2022-10-01T02:39:02;4.07;;;3.03;;
49514;SDS011;35415;47.870;16.058;2022-10-01T02:41:32;5.15;;;3.22;;
49514;SDS011;35415;47.870;16.058;2022-10-01T02:44:02;5.72;;;3.08;;
49514;SDS011;35415;47.870;16.058;2022-10-01T02:46:37;4.28;;;3.25;;
49514;SDS011;35415;47.870;16.058;2022-10-01T02:49:09;3.90;;;3.42;;
49514;SDS011;35415;47.870;16.058;2022-10-01T02:51:39;5.30;;;3.13;;
49514;SDS011;35415;47.870;16.058;2022-10-01T02:54:16;3.83;;;3.20;;
49514;SDS011;35415;47.870;16.058;2022-10-01T02:56:49;4.00;;;3.15;;
49514;SDS011;35415;47.870;16.058;2022-10-01T02:59:36;4.07;;;2.50;;
49514;SDS011;35415;47.870;16.058;2022-10-01T03:02:04;4.95;;;3.30;;
49514;SDS011;35415;47.870;16.058;2022-10-01T03:04:31;4.18;;;2.55;;
49514;SDS011;35415;47.870;16.058;2022-10-01T03:06:59;4.07;;;2.45;;
49514;SDS011;35415;47.870;16.058;2022-10-01T03:09:28;2.67;;;2.33;;
49514;SDS011;35415;47.870;16.058;2022-10-01T03:11:55;2.88;;;2.42;;
49514;SDS011;35415;47.870;16.058;2022-10-01T03:14:23;2.92;;;2.60;;
49514;SDS011;35415;47.870;16.058;2022-10-01T03:16:50;2.60;;;2.10;;
49514;SDS011;35415;47.870;16.058;2022-10-01T03:19:19;2.40;;;2.17;;
49514;SDS011;35415;47.870;16.058;2022-10-01T03:21:46;3.42;;;2.53;;
49514;SDS011;35415;47.870;16.058;2022-10-01T03:24:15;2.95;;;2.10;;
49514;SDS011;35415;47.870;16.058;2022-10-01T03:26:42;2.70;;;2.30;;
49514;SDS011;35415;47.870;16.058;2022-10-01T03:29:10;2.67;;;2.00;;
49514;SDS011;35415;47.870;16.058;2022-10-01T03:31:37;2.67;;;2.20;;
49514;SDS011;35415;47.870;16.058;2022-10-01T03:34:04;2.92;;;2.25;;
49514;SDS011;35415;47.870;16.058;2022-10-01T03:36:33;3.55;;;2.10;;
49514;SDS011;35415;47.870;16.058;2022-10-01T03:39:00;2.55;;;2.10;;
49514;SDS011;35415;47.870;16.058;2022-10-01T03:41:28;2.42;;;2.22;;
49514;SDS011;35415;47.870;16.058;2022-10-01T03:43:55;2.85;;;2.00;;
49514;SDS011;35415;47.870;16.058;2022-10-01T03:46:22;2.40;;;2.20;;
49514;SDS011;35415;47.870;16.058;2022-10-01T03:48:50;2.63;;;2.22;;
49514;SDS011;35415;47.870;16.058;2022-10-01T03:51:17;2.58;;;1.83;;
49514;SDS011;35415;47.870;16.058;2022-10-01T03:53:46;2.80;;;2.28;;
49514;SDS011;35415;47.870;16.058;2022-10-01T03:56:13;2.33;;;2.05;;
49514;SDS011;35415;47.870;16.058;2022-10-01T03:58:41;4.55;;;1.90;;
49514;SDS011;35415;47.870;16.058;2022-10-01T04:01:08;2.25;;;2.05;;
49514;SDS011;35415;47.870;16.058;2022-10-01T04:03:35;3.30;;;2.20;;
49514;SDS011;35415;47.870;16.058;2022-10-01T04:06:02;2.22;;;2.03;;
49514;SDS011;35415;47.870;16.058;2022-10-01T04:08:29;2.85;;;2.50;;
49514;SDS011;35415;47.870;16.058;2022-10-01T04:10:58;3.15;;;2.47;;
49514;SDS011;35415;47.870;16.058;2022-10-01T04:13:25;4.43;;;2.75;;
49514;SDS011;35415;47.870;16.058;2022-10-01T04:15:54;2.78;;;2.20;;
49514;SDS011;35415;47.870;16.058;2022-10-01T04:18:21;3.42;;;2.75;;
49514;SDS011;35415;47.870;16.058;2022-10-01T04:20:48;3.08;;;2.40;;
49514;SDS011;35415;47.870;16.058;2022-10-01T04:23:15;3.42;;;2.67;;
49514;SDS011;35415;47.870;16.058;2022-10-01T04:25:42;3.00;;;2.60;;
49514;SDS011;35415;47.870;16.058;2022-10-01T04:28:11;3.80;;;2.47;;
49514;SDS011;35415;47.870;16.058;2022-10-01T04:30:39;6.50;;;2.33;;
49514;SDS011;35415;47.870;16.058;2022-10-01T04:33:08;5.40;;;2.90;;
49514;SDS011;35415;47.870;16.058;2022-10-01T04:35:38;5.50;;;2.50;;
49514;SDS011;35415;47.870;16.058;2022-10-01T04:38:06;3.30;;;2.33;;
49514;SDS011;35415;47.870;16.058;2022-10-01T04:40:37;5.40;;;2.75;;
49514;SDS011;35415;47.870;16.058;2022-10-01T04:43:04;2.75;;;2.33;;
49514;SDS011;35415;47.870;16.058;2022-10-01T04:45:35;2.95;;;2.53;;
49514;SDS011;35415;47.870;16.058;2022-10-01T04:48:02;3.75;;;2.38;;
49514;SDS011;35415;47.870;16.058;2022-10-01T04:50:30;4.22;;;2.83;;
49514;SDS011;35415;47.870;16.058;2022-10-01T04:52:58;3.65;;;2.78;;
49514;SDS011;35415;47.870;16.058;2022-10-01T04:55:25;3.00;;;2.72;;
49514;SDS011;35415;47.870;16.058;2022-10-01T04:57:52;4.85;;;2.90;;
49514;SDS011;35415;47.870;16.058;2022-10-01T05:00:20;4.50;;;2.50;;
49514;SDS011;35415;47.870;16.058;2022-10-01T05:02:50;3.42;;;2.42;;
49514;SDS011;35415;47.870;16.058;2022-10-01T05:05:18;4.45;;;2.53;;
49514;SDS011;35415;47.870;16.058;2022-10-01T05:07:46;4.13;;;2.60;;
49514;SDS011;35415;47.870;16.058;2022-10-01T05:10:17;3.30;;;2.72;;
49514;SDS011;35415;47.870;16.058;2022-10-01T05:12:46;2.80;;;2.47;;
49514;SDS011;35415;47.870;16.058;2022-10-01T05:15:14;2.58;;;2.30;;
49514;SDS011;35415;47.870;16.058;2022-10-01T05:17:43;2.85;;;2.22;;
49514;SDS011;35415;47.870;16.058;2022-10-01T05:20:16;3.25;;;2.47;;
49514;SDS011;35415;47.870;16.058;2022-10-01T05:22:45;3.27;;;2.63;;
49514;SDS011;35415;47.870;16.058;2022-10-01T05:25:13;4.88;;;2.95;;
49514;SDS011;35415;47.870;16.058;2022-10-01T05:27:42;4.15;;;2.72;;
49514;SDS011;35415;47.870;16.058;2022-10-01T05:30:11;2.72;;;2.47;;
49514;SDS011;35415;47.870;16.058;2022-10-01T05:32:39;3.40;;;2.60;;
49514;SDS011;35415;47.870;16.058;2022-10-01T05:35:07;2.92;;;2.45;;
49514;SDS011;35415;47.870;16.058;2022-10-01T05:37:36;4.25;;;2.70;;
49514;SDS011;35415;47.870;16.058;2022-10-01T05:40:04;3.17;;;2.55;;
49514;SDS011;35415;47.870;16.058;2022-10-01T05:42:31;8.32;;;3.33;;
49514;SDS011;35415;47.870;16.058;2022-10-01T05:44:58;4.20;;;2.90;;
49514;SDS011;35415;47.870;16.058;2022-10-01T05:47:25;3.47;;;2.60;;
49514;SDS011;35415;47.870;16.058;2022-10-01T05:49:52;6.47;;;2.80;;
49514;SDS011;35415;47.870;16.058;2022-10-01T05:52:19;5.18;;;2.60;;
49514;SDS011;35415;47.870;16.058;2022-10-01T05:54:48;2.90;;;2.50;;
49514;SDS011;35415;47.870;16.058;2022-10-01T05:57:15;4.18;;;2.92;;
49514;SDS011;35415;47.870;16.058;2022-10-01T05:59:42;3.65;;;2.72;;
49514;SDS011;35415;47.870;16.058;2022-10-01T06:02:09;4.82;;;2.67;;
49514;SDS011;35415;47.870;16.058;2022-10-01T06:04:36;3.90;;;2.85;;
49514;SDS011;35415;47.870;16.058;2022-10-01T06:07:04;3.90;;;2.70;;
49514;SDS011;35415;47.870;16.058;2022-10-01T06:09:33;3.47;;;2.60;;
49514;SDS011;35415;47.870;16.058;2022-10-01T06:12:06;3.15;;;2.30;;
49514;SDS011;35415;47.870;16.058;2022-10-01T06:14:36;6.78;;;3.10;;
49514;SDS011;35415;47.870;16.058;2022-10-01T06:17:04;4.10;;;2.88;;
49514;SDS011;35415;47.870;16.058;2022-10-01T06:19:33;3.92;;;3.15;;
49514;SDS011;35415;47.870;16.058;2022-10-01T06:22:04;2.80;;;2.50;;
49514;SDS011;35415;47.870;16.058;2022-10-01T06:24:32;4.80;;;3.17;;
49514;SDS011;35415;47.870;16.058;2022-10-01T06:27:00;5.15;;;3.30;;
49514;SDS011;35415;47.870;16.058;2022-10-01T06:29:29;3.90;;;3.30;;
49514;SDS011;35415;47.870;16.058;2022-10-01T06:31:57;4.55;;;2.97;;
49514;SDS011;35415;47.870;16.058;2022-10-01T06:34:25;3.67;;;2.88;;
49514;SDS011;35415;47.870;16.058;2022-10-01T06:36:57;4.93;;;3.40;;
49514;SDS011;35415;47.870;16.058;2022-10-01T06:39:25;4.32;;;3.15;;
49514;SDS011;35415;47.870;16.058;2022-10-01T06:41:54;3.33;;;3.00;;
49514;SDS011;35415;47.870;16.058;2022-10-01T06:44:22;4.15;;;2.90;;
49514;SDS011;35415;47.870;16.058;2022-10-01T06:46:51;7.00;;;4.25;;
49514;SDS011;35415;47.870;16.058;2022-10-01T06:49:19;6.70;;;3.72;;
49514;SDS011;35415;47.870;16.058;2022-10-01T06:51:47;7.00;;;3.88;;
49514;SDS011;35415;47.870;16.058;2022-10-01T06:54:32;5.00;;;3.95;;
49514;SDS011;35415;47.870;16.058;2022-10-01T06:57:03;4.47;;;3.42;;
49514;SDS011;35415;47.870;16.058;2022-10-01T06:59:30;8.15;;;3.10;;
49514;SDS011;35415;47.870;16.058;2022-10-01T07:01:58;4.35;;;3.40;;
49514;SDS011;35415;47.870;16.058;2022-10-01T07:04:27;3.28;;;2.72;;
49514;SDS011;35415;47.870;16.058;2022-10-01T07:06:54;2.63;;;2.42;;
49514;SDS011;35415;47.870;16.058;2022-10-01T07:09:22;4.32;;;3.08;;
49514;SDS011;35415;47.870;16.058;2022-10-01T07:11:50;2.90;;;2.60;;
49514;SDS011;35415;47.870;16.058;2022-10-01T07:14:18;2.95;;;2.38;;
49514;SDS011;35415;47.870;16.058;2022-10-01T07:16:46;4.05;;;2.90;;
49514;SDS011;35415;47.870;16.058;2022-10-01T07:19:14;5.30;;;2.35;;
49514;SDS011;35415;47.870;16.058;2022-10-01T07:21:42;3.00;;;2.50;;
49514;SDS011;35415;47.870;16.058;2022-10-01T07:24:10;3.20;;;2.60;;
49514;SDS011;35415;47.870;16.058;2022-10-01T07:26:38;4.10;;;2.65;;
49514;SDS011;35415;47.870;16.058;2022-10-01T07:29:07;5.40;;;3.08;;
49514;SDS011;35415;47.870;16.058;2022-10-01T07:31:35;5.82;;;4.90;;
49514;SDS011;35415;47.870;16.058;2022-10-01T07:34:02;4.43;;;4.03;;
49514;SDS011;35415;47.870;16.058;2022-10-01T07:36:31;7.53;;;4.43;;
49514;SDS011;35415;47.870;16.058;2022-10-01T07:38:58;4.55;;;2.80;;
49514;SDS011;35415;47.870;16.058;2022-10-01T07:41:26;3.45;;;2.70;;
49514;SDS011;35415;47.870;16.058;2022-10-01T07:43:54;3.22;;;2.50;;
49514;SDS011;35415;47.870;16.058;2022-10-01T07:46:21;3.55;;;2.60;;
49514;SDS011;35415;47.870;16.058;2022-10-01T07:48:49;3.03;;;2.25;;
49514;SDS011;35415;47.870;16.058;2022-10-01T07:51:17;4.82;;;2.47;;
49514;SDS011;35415;47.870;16.058;2022-10-01T07:53:46;2.10;;;1.83;;
49514;SDS011;35415;47.870;16.058;2022-10-01T07:56:13;2.47;;;2.08;;
49514;SDS011;35415;47.870;16.058;2022-10-01T07:58:40;2.47;;;2.28;;
49514;SDS011;35415;47.870;16.058;2022-10-01T08:01:08;2.38;;;2.08;;
49514;SDS011;35415;47.870;16.058;2022-10-01T08:03:35;3.38;;;2.42;;
49514;SDS011;35415;47.870;16.058;2022-10-01T08:06:02;2.90;;;2.38;;
49514;SDS011;35415;47.870;16.058;2022-10-01T08:08:32;3.35;;;2.45;;
49514;SDS011;35415;47.870;16.058;2022-10-01T08:11:02;3.33;;;2.35;;
49514;SDS011;35415;47.870;16.058;2022-10-01T08:13:32;6.13;;;2.63;;
49514;SDS011;35415;47.870;16.058;2022-10-01T08:16:00;3.33;;;2.72;;
49514;SDS011;35415;47.870;16.058;2022-10-01T08:18:30;3.03;;;2.65;;
49514;SDS011;35415;47.870;16.058;2022-10-01T08:20:58;2.20;;;1.98;;
49514;SDS011;35415;47.870;16.058;2022-10-01T08:23:26;3.03;;;2.65;;
49514;SDS011;35415;47.870;16.058;2022-10-01T08:25:58;2.72;;;2.15;;
49514;SDS011;35415;47.870;16.058;2022-10-01T08:28:27;2.22;;;1.95;;
49514;SDS011;35415;47.870;16.058;2022-10-01T08:30:55;2.00;;;1.80;;
49514;SDS011;35415;47.870;16.058;2022-10-01T08:33:22;2.25;;;2.05;;
49514;SDS011;35415;47.870;16.058;2022-10-01T08:35:50;2.63;;;2.13;;
49514;SDS011;35415;47.870;16.058;2022-10-01T08:38:19;4.22;;;2.67;;
49514;SDS011;35415;47.870;16.058;2022-10-01T08:40:54;3.60;;;2.65;;
49514;SDS011;35415;47.870;16.058;2022-10-01T08:43:32;2.45;;;2.15;;
49514;SDS011;35415;47.870;16.058;2022-10-01T08:46:03;2.63;;;2.35;;
49514;SDS011;35415;47.870;16.058;2022-10-01T08:48:38;3.60;;;2.40;;
49514;SDS011;35415;47.870;16.058;2022-10-01T08:51:20;3.45;;;2.38;;
49514;SDS011;35415;47.870;16.058;2022-10-01T08:53:54;2.83;;;2.45;;
49514;SDS011;35415;47.870;16.058;2022-10-01T08:56:27;5.28;;;3.75;;
49514;SDS011;35415;47.870;16.058;2022-10-01T08:58:59;7.88;;;4.53;;
49514;SDS011;35415;47.870;16.058;2022-10-01T09:01:31;5.68;;;3.42;;
49514;SDS011;35415;47.870;16.058;2022-10-01T09:04:01;4.07;;;3.00;;
49514;SDS011;35415;47.870;16.058;2022-10-01T09:06:36;3.97;;;2.33;;
49514;SDS011;35415;47.870;16.058;2022-10-01T09:09:14;4.47;;;3.00;;
49514;SDS011;35415;47.870;16.058;2022-10-01T09:11:56;28.52;;;21.45;;
49514;SDS011;35415;47.870;16.058;2022-10-01T09:14:39;39.08;;;26.05;;
49514;SDS011;35415;47.870;16.058;2022-10-01T09:17:35;20.20;;;13.10;;
49514;SDS011;35415;47.870;16.058;2022-10-01T09:20:10;6.43;;;4.70;;
49514;SDS011;35415;47.870;16.058;2022-10-01T09:22:48;16.25;;;6.50;;
49514;SDS011;35415;47.870;16.058;2022-10-01T09:25:26;4.47;;;3.67;;
49514;SDS011;35415;47.870;16.058;2022-10-01T09:27:56;5.80;;;3.70;;
49514;SDS011;35415;47.870;16.058;2022-10-01T09:30:29;5.75;;;3.50;;
49514;SDS011;35415;47.870;16.058;2022-10-01T09:32:59;3.78;;;2.58;;
49514;SDS011;35415;47.870;16.058;2022-10-01T09:35:33;3.33;;;2.90;;
49514;SDS011;35415;47.870;16.058;2022-10-01T09:38:06;2.97;;;2.60;;
49514;SDS011;35415;47.870;16.058;2022-10-01T09:40:40;3.97;;;2.70;;
49514;SDS011;35415;47.870;16.058;2022-10-01T09:43:26;3.40;;;2.55;;
49514;SDS011;35415;47.870;16.058;2022-10-01T09:45:59;3.40;;;2.63;;
49514;SDS011;35415;47.870;16.058;2022-10-01T09:48:36;3.17;;;2.85;;
49514;SDS011;35415;47.870;16.058;2022-10-01T09:51:11;2.63;;;2.42;;
49514;SDS011;35415;47.870;16.058;2022-10-01T09:53:42;3.30;;;2.70;;
49514;SDS011;35415;47.870;16.058;2022-10-01T09:56:15;5.00;;;3.17;;
49514;SDS011;35415;47.870;16.058;2022-10-01T09:58:50;5.32;;;3.33;;
49514;SDS011;35415;47.870;16.058;2022-10-01T10:01:36;3.65;;;3.22;;
49514;SDS011;35415;47.870;16.058;2022-10-01T10:04:09;3.42;;;3.13;;
49514;SDS011;35415;47.870;16.058;2022-10-01T10:06:36;2.92;;;2.55;;
49514;SDS011;35415;47.870;16.058;2022-10-01T10:09:10;3.40;;;2.80;;
49514;SDS011;35415;47.870;16.058;2022-10-01T10:11:42;3.97;;;2.72;;
49514;SDS011;35415;47.870;16.058;2022-10-01T10:14:10;3.08;;;2.38;;
49514;SDS011;35415;47.870;16.058;2022-10-01T10:16:45;3.95;;;2.95;;
49514;SDS011;35415;47.870;16.058;2022-10-01T10:19:14;2.95;;;2.30;;
49514;SDS011;35415;47.870;16.058;2022-10-01T10:21:50;4.07;;;2.60;;
49514;SDS011;35415;47.870;16.058;2022-10-01T10:26:51;2.63;;;2.40;;
49514;SDS011;35415;47.870;16.058;2022-10-01T10:29:25;2.58;;;2.38;;
49514;SDS011;35415;47.870;16.058;2022-10-01T10:31:56;2.60;;;2.40;;
49514;SDS011;35415;47.870;16.058;2022-10-01T10:34:26;2.20;;;2.00;;
49514;SDS011;35415;47.870;16.058;2022-10-01T10:37:01;3.55;;;2.45;;
49514;SDS011;35415;47.870;16.058;2022-10-01T10:39:33;2.28;;;2.08;;
49514;SDS011;35415;47.870;16.058;2022-10-01T10:42:03;1.95;;;1.73;;
49514;SDS011;35415;47.870;16.058;2022-10-01T10:44:34;2.53;;;1.88;;
49514;SDS011;35415;47.870;16.058;2022-10-01T10:47:06;1.75;;;1.25;;
49514;SDS011;35415;47.870;16.058;2022-10-01T10:49:37;1.27;;;1.13;;
49514;SDS011;35415;47.870;16.058;2022-10-01T10:52:16;1.08;;;1.00;;
49514;SDS011;35415;47.870;16.058;2022-10-01T10:54:48;1.90;;;1.20;;
49514;SDS011;35415;47.870;16.058;2022-10-01T10:57:17;1.35;;;1.25;;
49514;SDS011;35415;47.870;16.058;2022-10-01T10:59:54;1.10;;;0.90;;
49514;SDS011;35415;47.870;16.058;2022-10-01T11:02:25;1.33;;;1.00;;
49514;SDS011;35415;47.870;16.058;2022-10-01T11:04:56;6.00;;;2.35;;
49514;SDS011;35415;47.870;16.058;2022-10-01T11:07:25;1.30;;;1.00;;
49514;SDS011;35415;47.870;16.058;2022-10-01T11:10:01;1.58;;;1.00;;
49514;SDS011;35415;47.870;16.058;2022-10-01T11:15:15;1.15;;;0.90;;
49514;SDS011;35415;47.870;16.058;2022-10-01T11:18:08;0.95;;;0.80;;
49514;SDS011;35415;47.870;16.058;2022-10-01T11:20:51;0.75;;;0.75;;
49514;SDS011;35415;47.870;16.058;2022-10-01T11:23:36;2.92;;;1.00;;
49514;SDS011;35415;47.870;16.058;2022-10-01T11:26:21;0.82;;;0.82;;
49514;SDS011;35415;47.870;16.058;2022-10-01T11:28:59;1.25;;;1.02;;
49514;SDS011;35415;47.870;16.058;2022-10-01T11:31:36;1.25;;;0.88;;
49514;SDS011;35415;47.870;16.058;2022-10-01T11:37:17;1.00;;;0.90;;
49514;SDS011;35415;47.870;16.058;2022-10-01T11:39:55;1.38;;;0.73;;
49514;SDS011;35415;47.870;16.058;2022-10-01T11:42:25;1.30;;;1.20;;
49514;SDS011;35415;47.870;16.058;2022-10-01T11:45:00;0.82;;;0.68;;
49514;SDS011;35415;47.870;16.058;2022-10-01T11:47:36;0.70;;;0.70;;
49514;SDS011;35415;47.870;16.058;2022-10-01T11:50:13;0.85;;;0.68;;
49514;SDS011;35415;47.870;16.058;2022-10-01T11:52:45;0.70;;;0.70;;
49514;SDS011;35415;47.870;16.058;2022-10-01T11:55:19;0.70;;;0.70;;
49514;SDS011;35415;47.870;16.058;2022-10-01T11:58:11;2.97;;;1.77;;
49514;SDS011;35415;47.870;16.058;2022-10-01T12:01:07;0.85;;;0.80;;
49514;SDS011;35415;47.870;16.058;2022-10-01T12:03:46;0.90;;;0.80;;
49514;SDS011;35415;47.870;16.058;2022-10-01T12:06:23;0.90;;;0.90;;
49514;SDS011;35415;47.870;16.058;2022-10-01T12:08:55;1.55;;;0.77;;
49514;SDS011;35415;47.870;16.058;2022-10-01T12:11:35;1.48;;;0.80;;
49514;SDS011;35415;47.870;16.058;2022-10-01T12:14:11;1.30;;;0.70;;
49514;SDS011;35415;47.870;16.058;2022-10-01T12:16:45;0.60;;;0.60;;
49514;SDS011;35415;47.870;16.058;2022-10-01T12:19:22;1.65;;;1.02;;
49514;SDS011;35415;47.870;16.058;2022-10-01T12:21:54;1.00;;;0.80;;
49514;SDS011;35415;47.870;16.058;2022-10-01T12:24:27;0.82;;;0.82;;
49514;SDS011;35415;47.870;16.058;2022-10-01T12:27:00;0.93;;;0.90;;
49514;SDS011;35415;47.870;16.058;2022-10-01T12:29:38;0.77;;;0.77;;
49514;SDS011;35415;47.870;16.058;2022-10-01T12:32:15;0.70;;;0.68;;
49514;SDS011;35415;47.870;16.058;2022-10-01T12:34:54;1.10;;;0.88;;
49514;SDS011;35415;47.870;16.058;2022-10-01T12:37:37;0.85;;;0.82;;
49514;SDS011;35415;47.870;16.058;2022-10-01T12:40:19;0.70;;;0.70;;
49514;SDS011;35415;47.870;16.058;2022-10-01T12:43:00;1.17;;;0.75;;
49514;SDS011;35415;47.870;16.058;2022-10-01T12:45:47;0.60;;;0.60;;
49514;SDS011;35415;47.870;16.058;2022-10-01T12:48:23;2.50;;;0.60;;
49514;SDS011;35415;47.870;16.058;2022-10-01T12:50:58;0.45;;;0.45;;
49514;SDS011;35415;47.870;16.058;2022-10-01T12:53:37;0.50;;;0.50;;
49514;SDS011;35415;47.870;16.058;2022-10-01T12:56:14;1.15;;;0.65;;
49514;SDS011;35415;47.870;16.058;2022-10-01T12:58:59;0.68;;;0.68;;
49514;SDS011;35415;47.870;16.058;2022-10-01T13:01:50;0.60;;;0.60;;
49514;SDS011;35415;47.870;16.058;2022-10-01T13:04:33;1.27;;;1.13;;
49514;SDS011;35415;47.870;16.058;2022-10-01T13:07:14;0.80;;;0.80;;
49514;SDS011;35415;47.870;16.058;2022-10-01T13:10:09;5.35;;;2.50;;
49514;SDS011;35415;47.870;16.058;2022-10-01T13:15:26;0.90;;;0.80;;
49514;SDS011;35415;47.870;16.058;2022-10-01T13:18:09;1.42;;;1.00;;
49514;SDS011;35415;47.870;16.058;2022-10-01T13:20:43;1.60;;;1.23;;
49514;SDS011;35415;47.870;16.058;2022-10-01T13:23:21;2.28;;;1.10;;
49514;SDS011;35415;47.870;16.058;2022-10-01T13:25:59;1.40;;;1.20;;
49514;SDS011;35415;47.870;16.058;2022-10-01T13:28:35;1.02;;;1.00;;
49514;SDS011;35415;47.870;16.058;2022-10-01T13:31:16;4.63;;;1.90;;
49514;SDS011;35415;47.870;16.058;2022-10-01T13:33:52;1.88;;;1.08;;
49514;SDS011;35415;47.870;16.058;2022-10-01T13:36:27;2.47;;;1.05;;
49514;SDS011;35415;47.870;16.058;2022-10-01T13:38:59;4.03;;;2.60;;
49514;SDS011;35415;47.870;16.058;2022-10-01T13:41:28;3.33;;;1.80;;
49514;SDS011;35415;47.870;16.058;2022-10-01T13:43:58;1.98;;;1.40;;
49514;SDS011;35415;47.870;16.058;2022-10-01T13:46:47;3.60;;;2.42;;
49514;SDS011;35415;47.870;16.058;2022-10-01T13:49:18;5.22;;;2.53;;
49514;SDS011;35415;47.870;16.058;2022-10-01T13:51:50;4.43;;;2.70;;
49514;SDS011;35415;47.870;16.058;2022-10-01T13:54:21;3.03;;;2.47;;
49514;SDS011;35415;47.870;16.058;2022-10-01T13:56:53;3.67;;;2.70;;
49514;SDS011;35415;47.870;16.058;2022-10-01T13:59:25;4.40;;;2.13;;
49514;SDS011;35415;47.870;16.058;2022-10-01T14:01:57;2.55;;;2.03;;
49514;SDS011;35415;47.870;16.058;2022-10-01T14:04:26;3.38;;;2.17;;
49514;SDS011;35415;47.870;16.058;2022-10-01T14:07:02;3.72;;;2.60;;
49514;SDS011;35415;47.870;16.058;2022-10-01T14:09:40;4.20;;;2.30;;
49514;SDS011;35415;47.870;16.058;2022-10-01T14:12:13;5.90;;;3.17;;
49514;SDS011;35415;47.870;16.058;2022-10-01T14:15:11;7.25;;;4.55;;
49514;SDS011;35415;47.870;16.058;2022-10-01T14:17:59;10.75;;;6.68;;
49514;SDS011;35415;47.870;16.058;2022-10-01T14:20:29;4.88;;;1.67;;
49514;SDS011;35415;47.870;16.058;2022-10-01T14:23:04;2.20;;;1.10;;
49514;SDS011;35415;47.870;16.058;2022-10-01T14:25:41;1.10;;;1.00;;
49514;SDS011;35415;47.870;16.058;2022-10-01T14:28:21;1.60;;;1.13;;
49514;SDS011;35415;47.870;16.058;2022-10-01T14:30:57;1.33;;;1.02;;
49514;SDS011;35415;47.870;16.058;2022-10-01T14:36:29;1.25;;;1.02;;
49514;SDS011;35415;47.870;16.058;2022-10-01T14:39:03;0.80;;;0.80;;
49514;SDS011;35415;47.870;16.058;2022-10-01T14:41:38;0.75;;;0.75;;
49514;SDS011;35415;47.870;16.058;2022-10-01T14:44:21;5.22;;;1.00;;
49514;SDS011;35415;47.870;16.058;2022-10-01T14:46:50;1.15;;;1.00;;
49514;SDS011;35415;47.870;16.058;2022-10-01T14:49:42;5.22;;;1.40;;
49514;SDS011;35415;47.870;16.058;2022-10-01T14:52:15;1.70;;;1.30;;
49514;SDS011;35415;47.870;16.058;2022-10-01T14:54:46;2.95;;;1.40;;
49514;SDS011;35415;47.870;16.058;2022-10-01T14:57:24;2.42;;;1.40;;
49514;SDS011;35415;47.870;16.058;2022-10-01T15:00:00;3.07;;;1.20;;
49514;SDS011;35415;47.870;16.058;2022-10-01T15:02:32;1.50;;;1.40;;
49514;SDS011;35415;47.870;16.058;2022-10-01T15:04:59;4.90;;;1.85;;
49514;SDS011;35415;47.870;16.058;2022-10-01T15:07:31;1.52;;;1.40;;
49514;SDS011;35415;47.870;16.058;2022-10-01T15:10:04;1.75;;;1.30;;
49514;SDS011;35415;47.870;16.058;2022-10-01T15:12:33;1.75;;;1.50;;
49514;SDS011;35415;47.870;16.058;2022-10-01T15:15:15;1.13;;;1.00;;
49514;SDS011;35415;47.870;16.058;2022-10-01T15:17:45;1.35;;;1.15;;